createdAt,value
2023-01-15T00:01:01.039Z,99129.53
2023-01-15T00:03:29.093Z,99130.63
2023-01-15T00:05:55.744Z,99122.56
2023-01-15T00:08:22.531Z,99119.38
2023-01-15T00:10:49.131Z,99112.94
2023-01-15T00:13:15.757Z,99113.19
2023-01-15T00:15:42.598Z,99110.78
2023-01-15T00:18:10.365Z,99109.72
2023-01-15T00:20:37.010Z,99097.34
2023-01-15T00:23:03.601Z,99090.63
2023-01-15T00:25:48.552Z,99100.31
2023-01-15T00:28:15.203Z,99078.28
2023-01-15T00:30:46.010Z,99074.81
2023-01-15T00:33:12.595Z,99075.34
2023-01-15T00:35:39.647Z,99067.84
2023-01-15T00:38:07.159Z,99067.31
2023-01-15T00:40:34.204Z,99051.75
2023-01-15T00:43:00.880Z,99061.41
2023-01-15T00:45:27.542Z,99062.75
2023-01-15T00:47:54.356Z,99059.78
2023-01-15T00:50:21.042Z,99049.88
2023-01-15T00:52:47.738Z,99061.94
2023-01-15T00:55:14.382Z,99060.06
2023-01-15T00:57:41.100Z,99043.69
2023-01-15T01:00:08.448Z,99043.41
2023-01-15T01:02:35.181Z,99041.56
2023-01-15T01:05:01.905Z,99045.81
2023-01-15T01:07:30.534Z,99043.69
2023-01-15T01:09:57.152Z,99046.88
2023-01-15T01:12:23.823Z,99050.13
2023-01-15T01:14:50.499Z,99043.69
2023-01-15T01:17:17.194Z,99035.09
2023-01-15T01:19:43.868Z,99039.41
2023-01-15T01:22:10.475Z,99033.50
2023-01-15T01:24:37.142Z,99037.25
2023-01-15T01:27:03.863Z,99029.19
2023-01-15T01:29:30.474Z,99025.72
2023-01-15T01:31:57.264Z,99026.50
2023-01-15T01:34:24.221Z,99029.72
2023-01-15T01:36:50.920Z,99024.91
2023-01-15T01:39:19.441Z,99026.25
2023-01-15T01:41:47.081Z,99026.25
2023-01-15T01:44:33.516Z,99024.63
2023-01-15T01:47:03.219Z,99029.19
2023-01-15T01:49:30.867Z,99031.88
2023-01-15T01:52:07.715Z,99036.44
2023-01-15T01:54:38.148Z,99035.09
2023-01-15T01:57:06.554Z,99028.91
2023-01-15T01:59:33.566Z,99032.66
2023-01-15T02:02:00.788Z,99023.84
2023-01-15T02:04:29.312Z,99030.28
2023-01-15T02:06:57.640Z,99028.94
2023-01-15T02:09:24.976Z,99014.97
2023-01-15T02:11:57.483Z,99015.50
2023-01-15T02:14:38.810Z,99027.06
2023-01-15T02:17:16.701Z,99019.28
2023-01-15T02:20:09.271Z,99008.25
2023-01-15T02:22:53.473Z,99022.75
2023-01-15T02:25:33.800Z,99031.34
2023-01-15T02:28:13.131Z,99017.94
2023-01-15T02:30:48.965Z,99016.84
2023-01-15T02:33:35.434Z,99019.00
2023-01-15T02:36:06.646Z,99027.03
2023-01-15T02:38:46.214Z,99022.22
2023-01-15T02:41:18.451Z,99028.66
2023-01-15T02:43:57.822Z,99035.38
2023-01-15T02:46:30.690Z,99033.22
2023-01-15T02:49:00.375Z,99029.72
2023-01-15T02:51:44.795Z,99037.25
2023-01-15T02:54:15.665Z,99049.06
2023-01-15T02:56:47.094Z,99042.59
2023-01-15T02:59:21.378Z,99078.84
2023-01-15T03:01:55.428Z,99072.13
2023-01-15T03:04:37.422Z,99076.41
2023-01-15T03:07:19.071Z,99082.31
2023-01-15T03:09:47.844Z,99095.19
2023-01-15T03:12:26.032Z,99092.53
2023-01-15T03:15:42.572Z,99092.53
2023-01-15T03:18:13.173Z,99096.25
2023-01-15T03:20:51.061Z,99089.28
2023-01-15T03:23:19.237Z,99091.69
2023-01-15T03:25:49.411Z,99101.09
2023-01-15T03:28:25.377Z,99101.09
2023-01-15T03:30:53.108Z,99110.50
2023-01-15T03:33:20.170Z,99097.63
2023-01-15T03:35:55.951Z,99095.22
2023-01-15T03:38:46.782Z,99111.84
2023-01-15T03:41:59.575Z,99106.75
2023-01-15T03:44:41.315Z,99101.63
2023-01-15T03:47:42.866Z,99104.06
2023-01-15T03:50:37.237Z,99094.66
2023-01-15T03:53:15.811Z,99089.28
2023-01-15T03:55:59.647Z,99082.28
2023-01-15T03:58:39.585Z,99100.53
2023-01-15T04:01:12.673Z,99108.56
2023-01-15T04:03:42.451Z,99100.50
2023-01-15T04:06:10.405Z,99108.56
2023-01-15T04:08:40.765Z,99116.63
2023-01-15T04:11:08.776Z,99105.38
2023-01-15T04:13:46.087Z,99111.03
2023-01-15T04:16:28.753Z,99114.75
2023-01-15T04:18:55.465Z,99126.53
2023-01-15T04:21:23.538Z,99131.94
2023-01-15T04:23:50.279Z,99142.94
2023-01-15T04:26:17.496Z,99146.16
2023-01-15T04:28:44.212Z,99139.69
2023-01-15T04:31:11.006Z,99142.28
2023-01-15T04:33:39.991Z,99151.75
2023-01-15T04:36:08.767Z,99159.28
2023-01-15T04:38:38.407Z,99157.91
2023-01-15T04:41:24.493Z,99155.78
2023-01-15T04:44:09.335Z,99164.34
2023-01-15T04:46:40.603Z,99169.69
2023-01-15T04:49:13.399Z,99157.94
2023-01-15T04:51:41.217Z,99160.28
2023-01-15T04:54:09.400Z,99164.31
2023-01-15T04:56:40.042Z,99174.81
2023-01-15T04:59:07.045Z,99185.00
2023-01-15T05:01:34.208Z,99186.84
2023-01-15T05:04:01.762Z,99176.41
2023-01-15T05:06:29.351Z,99180.94
2023-01-15T05:08:56.003Z,99189.25
2023-01-15T05:11:23.039Z,99183.59
2023-01-15T05:13:49.702Z,99191.06
2023-01-15T05:16:19.226Z,99187.25
2023-01-15T05:18:47.195Z,99185.63
2023-01-15T05:21:19.087Z,99175.66
2023-01-15T05:23:47.496Z,99192.53
2023-01-15T05:26:14.428Z,99194.47
2023-01-15T05:28:41.151Z,99192.41
2023-01-15T05:31:10.890Z,99192.50
2023-01-15T05:33:38.670Z,99201.84
2023-01-15T05:36:14.017Z,99201.09
2023-01-15T05:38:41.431Z,99203.78
2023-01-15T05:41:29.710Z,99203.31
2023-01-15T05:43:59.621Z,99209.47
2023-01-15T05:46:26.272Z,99207.59
2023-01-15T05:48:53.003Z,99206.66
2023-01-15T05:51:19.779Z,99225.81
2023-01-15T05:53:46.397Z,99229.56
2023-01-15T05:56:13.091Z,99225.56
2023-01-15T05:58:39.722Z,99213.88
2023-01-15T06:01:08.631Z,99211.22
2023-01-15T06:03:35.663Z,99209.31
2023-01-15T06:06:03.981Z,99219.78
2023-01-15T06:08:31.004Z,99216.84
2023-01-15T06:10:57.644Z,99220.94
2023-01-15T06:13:24.251Z,99238.69
2023-01-15T06:15:50.883Z,99253.09
2023-01-15T06:18:17.521Z,99251.91
2023-01-15T06:20:44.159Z,99273.34
2023-01-15T06:23:10.777Z,99280.81
2023-01-15T06:25:37.862Z,99279.16
2023-01-15T06:28:06.183Z,99279.25
2023-01-15T06:30:33.432Z,99274.88
2023-01-15T06:33:00.619Z,99292.56
2023-01-15T06:35:27.309Z,99296.06
2023-01-15T06:37:53.943Z,99280.16
2023-01-15T06:40:20.643Z,99271.34
2023-01-15T06:43:05.789Z,99282.59
2023-01-15T06:45:57.193Z,99279.41
2023-01-15T06:48:25.194Z,99289.38
2023-01-15T06:50:52.242Z,99286.69
2023-01-15T06:53:19.501Z,99296.94
2023-01-15T06:55:46.363Z,99302.84
2023-01-15T06:58:13.293Z,99308.22
2023-01-15T07:00:42.835Z,99304.97
2023-01-15T07:03:09.635Z,99310.50
2023-01-15T07:05:39.189Z,99314.69
2023-01-15T07:08:05.889Z,99328.66
2023-01-15T07:10:35.274Z,99342.81
2023-01-15T07:13:02.070Z,99349.28
2023-01-15T07:15:29.096Z,99376.63
2023-01-15T07:17:56.765Z,99372.25
2023-01-15T07:20:24.201Z,99372.44
2023-01-15T07:22:53.790Z,99381.75
2023-01-15T07:25:20.440Z,99385.13
2023-01-15T07:27:48.275Z,99389.84
2023-01-15T07:30:15.103Z,99384.75
2023-01-15T07:32:41.929Z,99387.72
2023-01-15T07:35:10.082Z,99387.16
2023-01-15T07:37:37.720Z,99387.28
2023-01-15T07:40:04.886Z,99378.22
2023-01-15T07:42:49.763Z,99382.53
2023-01-15T07:45:35.652Z,99408.50
2023-01-15T07:48:20.918Z,99421.06
2023-01-15T07:50:47.610Z,99416.69
2023-01-15T07:53:14.309Z,99435.69
2023-01-15T07:55:40.937Z,99427.97
2023-01-15T07:58:07.509Z,99433.66
2023-01-15T08:00:34.151Z,99432.28
2023-01-15T08:03:01.245Z,99425.63
2023-01-15T08:05:27.857Z,99428.53
2023-01-15T08:07:54.524Z,99431.47
2023-01-15T08:10:21.178Z,99441.34
2023-01-15T08:13:08.472Z,99435.53
2023-01-15T08:15:39.500Z,99430.94
2023-01-15T08:18:07.198Z,99450.28
2023-01-15T08:20:36.093Z,99445.25
2023-01-15T08:23:02.961Z,99444.47
2023-01-15T08:25:29.640Z,99456.53
2023-01-15T08:27:56.566Z,99465.19
2023-01-15T08:30:25.506Z,99462.44
2023-01-15T08:32:52.692Z,99463.56
2023-01-15T08:35:19.504Z,99472.63
2023-01-15T08:37:46.139Z,99469.56
2023-01-15T08:40:13.013Z,99466.81
2023-01-15T08:42:40.541Z,99470.50
2023-01-15T08:45:07.911Z,99464.03
2023-01-15T08:47:34.582Z,99473.19
2023-01-15T08:50:01.197Z,99473.75
2023-01-15T08:52:29.965Z,99475.38
2023-01-15T08:54:56.567Z,99485.25
2023-01-15T08:57:23.153Z,99481.78
2023-01-15T08:59:49.689Z,99498.16
2023-01-15T09:02:17.597Z,99498.88
2023-01-15T09:04:44.319Z,99511.38
2023-01-15T09:07:12.621Z,99512.22
2023-01-15T09:09:39.314Z,99518.94
2023-01-15T09:12:06.031Z,99524.22
2023-01-15T09:14:57.896Z,99528.00
2023-01-15T09:17:19.146Z,99534.47
2023-01-15T09:19:46.073Z,99543.41
2023-01-15T09:22:12.655Z,99539.38
2023-01-15T09:24:39.236Z,99537.44
2023-01-15T09:27:05.840Z,99543.25
2023-01-15T09:29:32.433Z,99553.38
2023-01-15T09:31:59.121Z,99544.72
2023-01-15T09:34:25.662Z,99554.66
2023-01-15T09:36:52.380Z,99554.22
2023-01-15T09:39:19.096Z,99557.94
2023-01-15T09:42:19.216Z,99554.44
2023-01-15T09:45:06.370Z,99565.19
2023-01-15T09:47:59.161Z,99572.50
2023-01-15T09:50:53.342Z,99574.66
2023-01-15T09:54:08.186Z,99586.00
2023-01-15T09:56:36.953Z,99584.72
2023-01-15T09:59:16.545Z,99589.25
2023-01-15T10:01:43.579Z,99584.59
2023-01-15T10:04:40.780Z,99595.75
2023-01-15T10:07:10.390Z,99596.63
2023-01-15T10:09:41.048Z,99602.63
2023-01-15T10:12:35.202Z,99605.78
2023-01-15T10:15:14.074Z,99610.25
2023-01-15T10:17:43.089Z,99614.84
2023-01-15T10:20:15.630Z,99624.16
2023-01-15T10:23:05.183Z,99623.38
2023-01-15T10:25:56.451Z,99659.50
2023-01-15T10:28:31.973Z,99686.16
2023-01-15T10:31:18.911Z,99682.66
2023-01-15T10:33:59.298Z,99682.44
2023-01-15T10:36:33.776Z,99690.09
2023-01-15T10:39:31.439Z,99683.28
2023-01-15T10:42:21.467Z,99695.34
2023-01-15T10:45:10.279Z,99680.13
2023-01-15T10:47:38.973Z,99681.75
2023-01-15T10:50:20.829Z,99675.44
2023-01-15T10:52:56.270Z,99673.00
2023-01-15T10:55:31.752Z,99680.47
2023-01-15T10:58:11.566Z,99684.03
2023-01-15T11:00:39.672Z,99672.69
2023-01-15T11:03:43.227Z,99659.69
2023-01-15T11:06:21.734Z,99677.34
2023-01-15T11:09:12.657Z,99682.56
2023-01-15T11:12:01.764Z,99679.66
2023-01-15T11:15:01.221Z,99683.50
2023-01-15T11:17:59.812Z,99692.66
2023-01-15T11:20:32.132Z,99691.97
2023-01-15T11:23:07.763Z,99690.00
2023-01-15T11:25:34.493Z,99699.97
2023-01-15T11:28:06.551Z,99685.09
2023-01-15T11:30:37.835Z,99691.72
2023-01-15T11:33:07.227Z,99698.59
2023-01-15T11:35:34.487Z,99700.97
2023-01-15T11:38:02.882Z,99697.38
2023-01-15T11:40:30.188Z,99710.97
2023-01-15T11:43:15.628Z,99699.81
2023-01-15T11:46:09.063Z,99694.09
2023-01-15T11:49:03.767Z,99699.06
2023-01-15T11:51:35.625Z,99705.19
2023-01-15T11:54:08.174Z,99697.41
2023-01-15T11:56:36.138Z,99700.53
2023-01-15T11:59:09.391Z,99705.72
2023-01-15T12:01:42.179Z,99712.94
2023-01-15T12:04:47.795Z,99702.19
2023-01-15T12:07:15.002Z,99709.69
2023-01-15T12:09:57.733Z,99694.09
2023-01-15T12:13:01.464Z,99688.19
2023-01-15T12:15:55.047Z,99680.06
2023-01-15T12:18:31.942Z,99683.22
2023-01-15T12:21:19.698Z,99677.47
2023-01-15T12:23:55.773Z,99675.66
2023-01-15T12:26:28.858Z,99668.66
2023-01-15T12:29:13.409Z,99675.41
2023-01-15T12:31:46.842Z,99651.88
2023-01-15T12:34:25.688Z,99647.16
2023-01-15T12:37:02.346Z,99657.38
2023-01-15T12:39:43.039Z,99653.38
2023-01-15T12:42:34.539Z,99645.47
2023-01-15T12:45:07.680Z,99638.44
2023-01-15T12:47:48.363Z,99632.75
2023-01-15T12:50:32.652Z,99622.91
2023-01-15T12:53:14.768Z,99619.56
2023-01-15T12:55:54.289Z,99622.34
2023-01-15T12:58:31.038Z,99614.19
2023-01-15T13:01:06.880Z,99615.72
2023-01-15T13:03:47.901Z,99613.88
2023-01-15T13:06:16.915Z,99601.22
2023-01-15T13:09:05.832Z,99599.81
2023-01-15T13:11:32.891Z,99612.34
2023-01-15T13:13:59.601Z,99616.13
2023-01-15T13:16:54.402Z,99612.28
2023-01-15T13:19:40.307Z,99601.72
2023-01-15T13:22:15.464Z,99619.13
2023-01-15T13:25:11.449Z,99611.59
2023-01-15T13:27:56.416Z,99618.91
2023-01-15T13:30:46.455Z,99630.88
2023-01-15T13:33:29.847Z,99625.75
2023-01-15T13:36:29.822Z,99630.94
2023-01-15T13:39:00.648Z,99635.44
2023-01-15T13:41:49.417Z,99633.25
2023-01-15T13:44:20.147Z,99637.19
2023-01-15T13:46:49.435Z,99635.84
2023-01-15T13:49:32.063Z,99640.69
2023-01-15T13:52:04.072Z,99663.69
2023-01-15T13:54:32.865Z,99655.53
2023-01-15T13:57:22.802Z,99666.00
2023-01-15T13:59:50.741Z,99664.56
2023-01-15T14:02:24.609Z,99660.84
2023-01-15T14:04:51.771Z,99673.31
2023-01-15T14:07:31.938Z,99664.59
2023-01-15T14:10:24.192Z,99673.78
2023-01-15T14:13:12.249Z,99678.16
2023-01-15T14:15:58.441Z,99665.06
2023-01-15T14:18:58.690Z,99665.25
2023-01-15T14:21:43.945Z,99652.88
2023-01-15T14:24:27.694Z,99653.50
2023-01-15T14:27:26.837Z,99674.91
2023-01-15T14:30:10.236Z,99673.88
2023-01-15T14:32:59.071Z,99682.66
2023-01-15T14:35:26.260Z,99682.44
2023-01-15T14:37:57.528Z,99691.19
2023-01-15T14:40:33.107Z,99693.88
2023-01-15T14:43:07.659Z,99690.75
2023-01-15T14:45:41.979Z,99705.84
2023-01-15T14:48:20.575Z,99693.22
2023-01-15T14:50:48.807Z,99711.56
2023-01-15T14:53:32.811Z,99714.28
2023-01-15T14:56:14.537Z,99712.81
2023-01-15T14:59:08.795Z,99713.19
2023-01-15T15:01:41.687Z,99701.88
2023-01-15T15:04:39.312Z,99714.53
2023-01-15T15:07:12.242Z,99710.69
2023-01-15T15:09:43.879Z,99704.56
2023-01-15T15:12:28.732Z,99708.16
2023-01-15T15:15:03.162Z,99700.38
2023-01-15T15:17:39.722Z,99706.19
2023-01-15T15:20:58.096Z,99700.03
2023-01-15T15:23:36.877Z,99703.03
2023-01-15T15:26:06.977Z,99705.31
2023-01-15T15:28:33.835Z,99708.56
2023-01-15T15:31:01.573Z,99702.53
2023-01-15T15:33:38.160Z,99708.47
2023-01-15T15:36:07.288Z,99707.06
2023-01-15T15:38:34.638Z,99702.06
2023-01-15T15:41:05.129Z,99704.06
2023-01-15T15:44:04.341Z,99690.91
2023-01-15T15:46:51.474Z,99697.78
2023-01-15T15:49:22.241Z,99690.91
2023-01-15T15:51:53.753Z,99681.28
2023-01-15T15:54:23.427Z,99678.03
2023-01-15T15:57:17.006Z,99672.69
2023-01-15T15:59:47.795Z,99679.56
2023-01-15T16:02:36.490Z,99674.44
2023-01-15T16:05:28.368Z,99664.34
2023-01-15T16:07:55.295Z,99665.50
2023-01-15T16:10:29.337Z,99674.31
2023-01-15T16:12:59.983Z,99674.91
2023-01-15T16:15:41.073Z,99666.69
2023-01-15T16:18:23.642Z,99665.97
2023-01-15T16:20:50.375Z,99661.34
2023-01-15T16:23:25.747Z,99662.16
2023-01-15T16:26:03.102Z,99654.00
2023-01-15T16:28:49.802Z,99657.63
2023-01-15T16:31:18.783Z,99661.69
2023-01-15T16:33:59.176Z,99657.97
2023-01-15T16:36:27.134Z,99649.47
2023-01-15T16:38:55.124Z,99653.31
2023-01-15T16:41:29.636Z,99650.88
2023-01-15T16:44:01.221Z,99657.03
2023-01-15T16:46:31.834Z,99654.47
2023-01-15T16:49:29.472Z,99643.91
2023-01-15T16:51:58.234Z,99645.53
2023-01-15T16:54:31.008Z,99644.03
2023-01-15T16:57:23.514Z,99640.78
2023-01-15T16:59:57.596Z,99634.41
2023-01-15T17:02:29.707Z,99633.00
2023-01-15T17:04:56.671Z,99643.91
2023-01-15T17:07:39.260Z,99635.91
2023-01-15T17:10:19.934Z,99639.63
2023-01-15T17:12:47.157Z,99642.28
2023-01-15T17:15:16.529Z,99635.56
2023-01-15T17:17:51.087Z,99641.22
2023-01-15T17:20:20.073Z,99641.13
2023-01-15T17:22:49.913Z,99632.66
2023-01-15T17:25:21.495Z,99646.56
2023-01-15T17:27:48.107Z,99643.13
2023-01-15T17:30:15.743Z,99639.28
2023-01-15T17:32:42.776Z,99641.84
2023-01-15T17:35:30.600Z,99639.16
2023-01-15T17:37:57.459Z,99643.22
2023-01-15T17:40:25.258Z,99643.22
2023-01-15T17:42:53.812Z,99631.16
2023-01-15T17:45:28.593Z,99634.06
2023-01-15T17:47:55.677Z,99641.59
2023-01-15T17:50:23.034Z,99635.78
2023-01-15T17:52:50.586Z,99634.97
2023-01-15T17:55:39.186Z,99631.59
2023-01-15T17:58:27.372Z,99638.69
2023-01-15T18:01:13.056Z,99628.50
2023-01-15T18:04:04.665Z,99638.81
2023-01-15T18:06:31.753Z,99637.06
2023-01-15T18:09:01.604Z,99626.16
2023-01-15T18:11:28.639Z,99627.22
2023-01-15T18:13:55.999Z,99631.50
2023-01-15T18:16:23.475Z,99637.66
2023-01-15T18:18:52.727Z,99625.22
2023-01-15T18:21:20.177Z,99628.13
2023-01-15T18:23:47.242Z,99630.22
2023-01-15T18:26:14.191Z,99632.06
2023-01-15T18:28:40.909Z,99623.84
2023-01-15T18:31:08.998Z,99629.16
2023-01-15T18:33:35.734Z,99629.31
2023-01-15T18:36:13.903Z,99617.25
2023-01-15T18:38:46.129Z,99630.44
2023-01-15T18:41:34.128Z,99636.72
2023-01-15T18:44:24.188Z,99637.88
2023-01-15T18:46:54.224Z,99638.13
2023-01-15T18:49:21.434Z,99645.78
2023-01-15T18:52:06.850Z,99644.97
2023-01-15T18:54:33.588Z,99644.50
2023-01-15T18:57:00.583Z,99641.13
2023-01-15T18:59:27.343Z,99634.75
2023-01-15T19:01:56.235Z,99628.03
2023-01-15T19:04:23.084Z,99629.88
2023-01-15T19:06:50.240Z,99633.03
2023-01-15T19:09:18.025Z,99628.94
2023-01-15T19:11:44.839Z,99624.31
2023-01-15T19:14:30.350Z,99618.63
2023-01-15T19:17:15.560Z,99617.09
2023-01-15T19:19:43.272Z,99616.66
2023-01-15T19:22:29.035Z,99626.53
2023-01-15T19:24:56.266Z,99612.81
2023-01-15T19:27:23.166Z,99620.94
2023-01-15T19:29:50.505Z,99631.84
2023-01-15T19:32:17.505Z,99618.72
2023-01-15T19:34:44.818Z,99623.25
2023-01-15T19:37:11.480Z,99611.19
2023-01-15T19:39:38.426Z,99599.94
2023-01-15T19:42:24.123Z,99602.38
2023-01-15T19:45:09.385Z,99602.84
2023-01-15T19:48:01.452Z,99597.75
2023-01-15T19:50:43.476Z,99598.88
2023-01-15T19:53:13.179Z,99592.66
2023-01-15T19:55:45.050Z,99595.88
2023-01-15T19:58:13.892Z,99588.59
2023-01-15T20:00:43.089Z,99581.25
2023-01-15T20:03:12.169Z,99584.28
2023-01-15T20:05:41.035Z,99569.09
2023-01-15T20:08:12.475Z,99570.25
2023-01-15T20:10:41.758Z,99575.34
2023-01-15T20:13:45.363Z,99562.34
2023-01-15T20:16:19.647Z,99560.63
2023-01-15T20:18:50.236Z,99559.59
2023-01-15T20:21:17.813Z,99563.16
2023-01-15T20:23:44.952Z,99553.31
2023-01-15T20:26:14.386Z,99558.78
2023-01-15T20:28:42.641Z,99552.38
2023-01-15T20:31:19.322Z,99548.44
2023-01-15T20:33:47.788Z,99549.50
2023-01-15T20:36:15.029Z,99539.53
2023-01-15T20:38:41.639Z,99543.25
2023-01-15T20:41:29.751Z,99541.47
2023-01-15T20:44:14.826Z,99534.28
2023-01-15T20:46:41.613Z,99527.81
2023-01-15T20:49:28.861Z,99525.00
2023-01-15T20:51:56.745Z,99522.88
2023-01-15T20:54:25.647Z,99513.03
2023-01-15T20:56:52.656Z,99515.72
2023-01-15T20:59:19.563Z,99512.00
2023-01-15T21:01:46.304Z,99511.31
2023-01-15T21:04:13.731Z,99506.66
2023-01-15T21:06:41.144Z,99497.59
2023-01-15T21:09:08.095Z,99496.22
2023-01-15T21:11:35.043Z,99490.38
2023-01-15T21:14:01.762Z,99483.84
2023-01-15T21:16:28.462Z,99482.28
2023-01-15T21:18:55.557Z,99475.53
2023-01-15T21:21:22.770Z,99473.13
2023-01-15T21:23:50.250Z,99478.44
2023-01-15T21:26:17.284Z,99468.47
2023-01-15T21:28:44.722Z,99461.63
2023-01-15T21:31:13.056Z,99457.28
2023-01-15T21:33:42.494Z,99457.91
2023-01-15T21:36:12.343Z,99448.72
2023-01-15T21:38:39.866Z,99441.34
2023-01-15T21:41:14.287Z,99449.06
2023-01-15T21:44:01.027Z,99443.41
2023-01-15T21:46:28.268Z,99431.94
2023-01-15T21:48:56.208Z,99438.69
2023-01-15T21:51:24.277Z,99424.91
2023-01-15T21:53:50.899Z,99427.00
2023-01-15T21:56:17.681Z,99430.13
2023-01-15T21:58:44.232Z,99429.88
2023-01-15T22:01:12.482Z,99420.88
2023-01-15T22:03:40.145Z,99421.53
2023-01-15T22:06:08.929Z,99429.63
2023-01-15T22:08:35.832Z,99410.38
2023-01-15T22:11:08.018Z,99410.50
2023-01-15T22:13:36.546Z,99406.06
2023-01-15T22:16:06.182Z,99386.53
2023-01-15T22:18:33.980Z,99387.03
2023-01-15T22:21:03.513Z,99393.25
2023-01-15T22:23:30.218Z,99390.28
2023-01-15T22:25:56.835Z,99379.81
2023-01-15T22:28:23.736Z,99384.22
2023-01-15T22:30:50.440Z,99367.88
2023-01-15T22:33:17.235Z,99374.22
2023-01-15T22:35:44.120Z,99359.88
2023-01-15T22:38:10.710Z,99356.00
2023-01-15T22:40:37.382Z,99358.41
2023-01-15T22:43:04.035Z,99345.53
2023-01-15T22:45:30.717Z,99350.00
2023-01-15T22:47:57.290Z,99343.69
2023-01-15T22:50:23.950Z,99344.91
2023-01-15T22:52:50.543Z,99341.44
2023-01-15T22:55:17.271Z,99335.75
2023-01-15T22:57:43.980Z,99332.91
2023-01-15T23:00:11.069Z,99333.66
2023-01-15T23:02:56.245Z,99325.72
2023-01-15T23:05:24.203Z,99331.41
2023-01-15T23:07:51.146Z,99326.78
2023-01-15T23:10:17.743Z,99316.75
2023-01-15T23:12:44.407Z,99307.13
2023-01-15T23:15:13.339Z,99307.28
2023-01-15T23:17:40.581Z,99297.28
2023-01-15T23:20:09.472Z,99293.06
2023-01-15T23:22:36.146Z,99293.66
2023-01-15T23:25:03.173Z,99289.03
2023-01-15T23:27:30.289Z,99288.22
2023-01-15T23:29:56.935Z,99278.91
2023-01-15T23:32:23.517Z,99275.19
2023-01-15T23:34:50.155Z,99273.63
2023-01-15T23:37:16.926Z,99258.50
2023-01-15T23:39:43.482Z,99261.53
2023-01-15T23:42:29.877Z,99258.50
2023-01-15T23:45:15.242Z,99249.66
2023-01-15T23:47:41.814Z,99252.78
2023-01-15T23:50:08.854Z,99252.44
2023-01-15T23:52:35.503Z,99251.97
2023-01-15T23:55:02.189Z,99248.09
2023-01-15T23:57:30.292Z,99233.78
2023-01-15T23:59:56.855Z,99224.16
